createdAt,value
2023-07-06T00:01:31.981Z,99516.16
2023-07-06T00:04:00.892Z,99511.03
2023-07-06T00:06:30.424Z,99509.28
2023-07-06T00:09:00.575Z,99508.19
2023-07-06T00:11:35.431Z,99504.53
2023-07-06T00:14:05.017Z,99504.69
2023-07-06T00:16:33.684Z,99498.06
2023-07-06T00:19:02.673Z,99491.31
2023-07-06T00:21:32.392Z,99491.31
2023-07-06T00:24:03.038Z,99492.75
2023-07-06T00:26:31.895Z,99489.78
2023-07-06T00:29:00.725Z,99486.19
2023-07-06T00:31:42.482Z,99486.50
2023-07-06T00:34:11.369Z,99489.38
2023-07-06T00:36:40.154Z,99491.03
2023-07-06T00:39:14.239Z,99493.81
2023-07-06T00:41:45.421Z,99492.53
2023-07-06T00:44:40.159Z,99492.09
2023-07-06T00:47:13.504Z,99495.41
2023-07-06T00:49:43.231Z,99499.84
2023-07-06T00:52:12.913Z,99499.84
2023-07-06T00:54:43.805Z,99505.88
2023-07-06T00:57:16.035Z,99506.59
2023-07-06T00:59:45.800Z,99509.16
2023-07-06T01:02:18.014Z,99511.00
2023-07-06T01:04:47.433Z,99506.84
2023-07-06T01:07:22.364Z,99503.78
2023-07-06T01:09:54.477Z,99502.06
2023-07-06T01:12:26.532Z,99498.69
2023-07-06T01:14:57.653Z,99493.63
2023-07-06T01:17:34.841Z,99497.09
2023-07-06T01:20:22.621Z,99504.00
2023-07-06T01:23:18.610Z,99505.91
2023-07-06T01:26:15.480Z,99509.34
2023-07-06T01:29:05.918Z,99503.03
2023-07-06T01:31:44.393Z,99512.00
2023-07-06T01:34:23.216Z,99520.88
2023-07-06T01:36:58.877Z,99520.13
2023-07-06T01:39:29.324Z,99526.06
2023-07-06T01:42:31.680Z,99524.63
2023-07-06T01:45:06.531Z,99523.75
2023-07-06T01:47:41.794Z,99526.59
2023-07-06T01:50:13.711Z,99520.56
2023-07-06T01:52:59.378Z,99526.31
2023-07-06T01:55:33.166Z,99532.75
2023-07-06T01:58:12.423Z,99542.28
2023-07-06T02:00:47.893Z,99539.69
2023-07-06T02:03:19.437Z,99539.97
2023-07-06T02:05:48.809Z,99539.22
2023-07-06T02:08:19.765Z,99537.66
2023-07-06T02:10:48.877Z,99525.50
2023-07-06T02:13:19.393Z,99528.69
2023-07-06T02:15:49.282Z,99520.75
2023-07-06T02:18:19.747Z,99511.13
2023-07-06T02:20:48.592Z,99513.78
2023-07-06T02:23:17.385Z,99508.31
2023-07-06T02:25:46.362Z,99519.72
2023-07-06T02:28:15.082Z,99531.28
2023-07-06T02:30:43.919Z,99532.69
2023-07-06T02:33:13.482Z,99532.69
2023-07-06T02:35:47.244Z,99529.81
2023-07-06T02:38:18.461Z,99521.91
2023-07-06T02:40:47.615Z,99532.59
2023-07-06T02:43:16.539Z,99529.66
2023-07-06T02:45:48.532Z,99521.06
2023-07-06T02:48:19.319Z,99525.91
2023-07-06T02:50:52.176Z,99529.88
2023-07-06T02:53:21.712Z,99532.56
2023-07-06T02:55:53.302Z,99530.00
2023-07-06T02:58:22.192Z,99535.88
2023-07-06T03:00:52.331Z,99533.53
2023-07-06T03:03:21.204Z,99528.97
2023-07-06T03:05:51.552Z,99523.03
2023-07-06T03:08:20.566Z,99530.69
2023-07-06T03:10:49.735Z,99531.63
2023-07-06T03:13:19.223Z,99535.09
2023-07-06T03:15:53.000Z,99538.16
2023-07-06T03:18:22.024Z,99532.88
2023-07-06T03:20:52.202Z,99546.56
2023-07-06T03:23:22.868Z,99548.44
2023-07-06T03:25:53.716Z,99551.03
2023-07-06T03:28:25.983Z,99550.72
2023-07-06T03:30:58.542Z,99552.41
2023-07-06T03:33:27.790Z,99550.72
2023-07-06T03:36:00.300Z,99550.72
2023-07-06T03:38:31.371Z,99556.28
2023-07-06T03:41:05.060Z,99544.81
2023-07-06T03:43:34.381Z,99558.34
2023-07-06T03:46:04.752Z,99554.53
2023-07-06T03:48:33.707Z,99563.84
2023-07-06T03:51:06.460Z,99559.38
2023-07-06T03:53:36.997Z,99560.09
2023-07-06T03:56:07.004Z,99561.16
2023-07-06T03:58:40.245Z,99567.72
2023-07-06T04:01:09.627Z,99551.09
2023-07-06T04:03:38.428Z,99546.66
2023-07-06T04:06:09.840Z,99529.34
2023-07-06T04:08:39.351Z,99519.00
2023-07-06T04:11:10.369Z,99519.72
2023-07-06T04:13:39.305Z,99528.09
2023-07-06T04:16:08.314Z,99535.50
2023-07-06T04:18:37.238Z,99542.25
2023-07-06T04:21:06.015Z,99561.03
2023-07-06T04:23:37.310Z,99569.16
2023-07-06T04:26:06.548Z,99567.00
2023-07-06T04:28:39.933Z,99574.44
2023-07-06T04:31:09.196Z,99582.06
2023-07-06T04:33:38.086Z,99579.31
2023-07-06T04:36:08.271Z,99586.56
2023-07-06T04:38:38.204Z,99593.38
2023-07-06T04:41:07.394Z,99596.97
2023-07-06T04:43:36.215Z,99593.13
2023-07-06T04:46:05.103Z,99598.78
2023-07-06T04:48:34.546Z,99589.25
2023-07-06T04:51:03.217Z,99583.00
2023-07-06T04:53:34.422Z,99589.63
2023-07-06T04:56:05.240Z,99597.19
2023-07-06T04:58:34.135Z,99593.81
2023-07-06T05:01:07.260Z,99597.59
2023-07-06T05:03:37.348Z,99599.38
2023-07-06T05:06:09.425Z,99602.16
2023-07-06T05:08:38.319Z,99593.59
2023-07-06T05:11:08.693Z,99596.97
2023-07-06T05:13:38.764Z,99602.94
2023-07-06T05:16:07.673Z,99596.75
2023-07-06T05:18:36.859Z,99598.59
2023-07-06T05:21:06.769Z,99594.19
2023-07-06T05:23:35.778Z,99592.22
2023-07-06T05:26:05.253Z,99595.28
2023-07-06T05:28:35.768Z,99602.88
2023-07-06T05:31:05.850Z,99612.13
2023-07-06T05:33:35.843Z,99612.19
2023-07-06T05:36:04.987Z,99619.00
2023-07-06T05:38:33.739Z,99614.25
2023-07-06T05:41:04.594Z,99617.59
2023-07-06T05:43:35.037Z,99622.66
2023-07-06T05:46:04.136Z,99617.19
2023-07-06T05:48:33.083Z,99613.44
2023-07-06T05:51:02.045Z,99602.75
2023-07-06T05:53:30.814Z,99598.94
2023-07-06T05:56:00.692Z,99602.75
2023-07-06T05:58:29.597Z,99591.88
2023-07-06T06:01:00.960Z,99593.69
2023-07-06T06:03:30.509Z,99596.66
2023-07-06T06:08:30.535Z,99600.03
2023-07-06T06:11:01.742Z,99604.19
2023-07-06T06:13:31.874Z,99608.31
2023-07-06T06:16:02.125Z,99609.84
2023-07-06T06:18:31.276Z,99601.16
2023-07-06T06:21:00.346Z,99599.34
2023-07-06T06:23:29.242Z,99592.31
2023-07-06T06:25:58.339Z,99609.44
2023-07-06T06:28:27.645Z,99609.16
2023-07-06T06:30:56.846Z,99600.47
2023-07-06T06:33:27.087Z,99590.00
2023-07-06T06:36:00.977Z,99591.50
2023-07-06T06:38:29.776Z,99604.41
2023-07-06T06:41:01.520Z,99600.31
2023-07-06T06:43:30.315Z,99610.44
2023-07-06T06:45:59.442Z,99611.06
2023-07-06T06:48:29.737Z,99609.38
2023-07-06T06:50:58.865Z,99608.75
2023-07-06T06:53:27.785Z,99616.31
2023-07-06T06:55:57.246Z,99619.00
2023-07-06T06:58:27.476Z,99605.38
2023-07-06T07:00:59.874Z,99603.84
2023-07-06T07:03:30.493Z,99601.50
2023-07-06T07:06:03.326Z,99603.25
2023-07-06T07:08:32.046Z,99608.63
2023-07-06T07:11:14.269Z,99613.22
2023-07-06T07:13:50.726Z,99612.53
2023-07-06T07:16:20.185Z,99616.19
2023-07-06T07:18:50.529Z,99624.03
2023-07-06T07:21:20.721Z,99629.34
2023-07-06T07:23:52.121Z,99627.56
2023-07-06T07:26:23.578Z,99625.72
2023-07-06T07:28:53.370Z,99624.81
2023-07-06T07:31:23.786Z,99611.97
2023-07-06T07:33:54.005Z,99610.28
2023-07-06T07:36:23.721Z,99613.78
2023-07-06T07:38:55.072Z,99612.66
2023-07-06T07:41:24.005Z,99614.50
2023-07-06T07:43:52.822Z,99618.59
2023-07-06T07:46:24.354Z,99625.31
2023-07-06T07:48:55.488Z,99629.53
2023-07-06T07:51:28.171Z,99630.38
2023-07-06T07:53:58.622Z,99631.91
2023-07-06T07:56:29.663Z,99628.13
2023-07-06T07:58:58.688Z,99617.47
2023-07-06T08:01:27.954Z,99624.06
2023-07-06T08:03:58.672Z,99621.16
2023-07-06T08:06:27.507Z,99623.63
2023-07-06T08:08:56.465Z,99620.09
2023-07-06T08:11:26.801Z,99620.94
2023-07-06T08:13:58.349Z,99619.19
2023-07-06T08:16:27.545Z,99626.84
2023-07-06T08:19:02.767Z,99630.22
2023-07-06T08:22:08.549Z,99633.72
2023-07-06T08:24:37.932Z,99632.72
2023-07-06T08:27:07.371Z,99630.91
2023-07-06T08:29:36.074Z,99629.91
2023-07-06T08:32:05.512Z,99638.50
2023-07-06T08:34:36.734Z,99639.31
2023-07-06T08:37:06.061Z,99635.72
2023-07-06T08:39:35.132Z,99641.88
2023-07-06T08:42:04.133Z,99637.38
2023-07-06T08:44:32.864Z,99641.59
2023-07-06T08:47:01.829Z,99642.38
2023-07-06T08:49:33.960Z,99639.63
2023-07-06T08:52:07.773Z,99646.53
2023-07-06T08:54:39.904Z,99651.72
2023-07-06T08:57:16.985Z,99645.66
2023-07-06T08:59:50.016Z,99662.88
2023-07-06T09:02:21.372Z,99659.97
2023-07-06T09:04:52.432Z,99666.75
2023-07-06T09:07:28.172Z,99669.97
2023-07-06T09:10:06.865Z,99671.63
2023-07-06T09:12:47.655Z,99666.28
2023-07-06T09:15:21.934Z,99663.69
2023-07-06T09:17:53.340Z,99657.28
2023-07-06T09:20:24.181Z,99657.56
2023-07-06T09:22:54.489Z,99659.75
2023-07-06T09:25:29.855Z,99666.00
2023-07-06T09:28:00.911Z,99668.38
2023-07-06T09:30:32.362Z,99665.59
2023-07-06T09:33:19.960Z,99669.50
2023-07-06T09:35:55.323Z,99674.31
2023-07-06T09:38:27.327Z,99681.94
2023-07-06T09:40:57.160Z,99684.25
2023-07-06T09:43:28.719Z,99680.44
2023-07-06T09:46:02.351Z,99667.78
2023-07-06T09:48:37.656Z,99674.84
2023-07-06T09:51:14.545Z,99670.84
2023-07-06T09:53:50.187Z,99666.03
2023-07-06T09:56:19.273Z,99670.56
2023-07-06T09:58:50.945Z,99669.59
2023-07-06T10:01:35.451Z,99671.53
2023-07-06T10:04:23.378Z,99665.50
2023-07-06T10:07:07.003Z,99676.47
2023-07-06T10:09:41.973Z,99668.00
2023-07-06T10:12:20.436Z,99671.47
2023-07-06T10:14:53.124Z,99673.31
2023-07-06T10:17:37.744Z,99679.34
2023-07-06T10:20:19.405Z,99672.34
2023-07-06T10:23:06.787Z,99674.69
2023-07-06T10:25:44.916Z,99677.69
2023-07-06T10:28:20.037Z,99675.09
2023-07-06T10:30:52.706Z,99673.34
2023-07-06T10:33:28.982Z,99677.59
2023-07-06T10:36:00.081Z,99683.69
2023-07-06T10:38:29.112Z,99674.34
2023-07-06T10:41:24.159Z,99672.66
2023-07-06T10:44:00.728Z,99665.88
2023-07-06T10:46:35.199Z,99660.97
2023-07-06T10:49:19.812Z,99658.53
2023-07-06T10:51:52.052Z,99658.28
2023-07-06T10:54:26.144Z,99661.94
2023-07-06T10:57:04.266Z,99664.47
2023-07-06T10:59:40.241Z,99655.38
2023-07-06T11:02:22.221Z,99649.53
2023-07-06T11:05:09.716Z,99661.56
2023-07-06T11:07:47.564Z,99653.91
2023-07-06T11:10:33.407Z,99663.66
2023-07-06T11:13:20.432Z,99663.19
2023-07-06T11:16:03.527Z,99653.75
2023-07-06T11:18:40.479Z,99652.75
2023-07-06T11:21:30.455Z,99654.69
2023-07-06T11:24:08.138Z,99651.84
2023-07-06T11:26:44.186Z,99657.69
2023-07-06T11:29:13.411Z,99657.88
2023-07-06T11:32:00.668Z,99651.16
2023-07-06T11:34:39.689Z,99661.00
2023-07-06T11:37:26.847Z,99655.88
2023-07-06T11:40:08.385Z,99659.84
2023-07-06T11:42:54.904Z,99650.63
2023-07-06T11:45:32.652Z,99660.31
2023-07-06T11:48:21.364Z,99657.09
2023-07-06T11:50:51.795Z,99660.94
2023-07-06T11:53:44.715Z,99656.00
2023-07-06T11:56:34.357Z,99661.34
2023-07-06T11:59:09.236Z,99661.34
2023-07-06T12:01:47.494Z,99656.22
2023-07-06T12:04:21.646Z,99660.81
2023-07-06T12:06:51.908Z,99650.91
2023-07-06T12:09:24.246Z,99650.78
2023-07-06T12:12:03.593Z,99648.34
2023-07-06T12:14:33.915Z,99653.19
2023-07-06T12:17:04.055Z,99650.88
2023-07-06T12:19:39.270Z,99655.72
2023-07-06T12:22:15.033Z,99663.06
2023-07-06T12:24:44.390Z,99655.84
2023-07-06T12:27:14.487Z,99649.91
2023-07-06T12:29:46.872Z,99644.16
2023-07-06T12:32:18.499Z,99643.88
2023-07-06T12:34:52.125Z,99646.19
2023-07-06T12:37:22.578Z,99632.19
2023-07-06T12:39:52.721Z,99638.25
2023-07-06T12:42:23.930Z,99633.28
2023-07-06T12:44:56.483Z,99627.41
2023-07-06T12:47:30.155Z,99634.31
2023-07-06T12:50:06.187Z,99611.31
2023-07-06T12:52:36.046Z,99626.09
2023-07-06T12:55:06.828Z,99622.84
2023-07-06T12:57:39.567Z,99626.56
2023-07-06T13:00:16.504Z,99625.22
2023-07-06T13:02:46.689Z,99625.09
2023-07-06T13:05:24.931Z,99620.44
2023-07-06T13:07:55.302Z,99618.94
2023-07-06T13:10:27.654Z,99617.75
2023-07-06T13:12:56.524Z,99623.84
2023-07-06T13:15:27.528Z,99625.75
2023-07-06T13:18:03.967Z,99626.97
2023-07-06T13:20:36.437Z,99619.97
2023-07-06T13:23:05.740Z,99625.22
2023-07-06T13:25:36.000Z,99621.31
2023-07-06T13:28:04.960Z,99623.94
2023-07-06T13:30:33.741Z,99615.44
2023-07-06T13:33:04.436Z,99624.84
2023-07-06T13:35:34.879Z,99623.72
2023-07-06T13:38:05.442Z,99617.69
2023-07-06T13:40:37.530Z,99619.06
2023-07-06T13:43:07.771Z,99616.63
2023-07-06T13:45:39.143Z,99619.16
2023-07-06T13:48:08.513Z,99614.53
2023-07-06T13:50:39.327Z,99614.09
2023-07-06T13:53:09.249Z,99614.97
2023-07-06T13:55:50.031Z,99610.47
2023-07-06T13:58:20.091Z,99606.72
2023-07-06T14:00:49.050Z,99618.09
2023-07-06T14:03:20.397Z,99606.63
2023-07-06T14:05:50.927Z,99608.47
2023-07-06T14:08:22.137Z,99626.63
2023-07-06T14:10:54.279Z,99627.78
2023-07-06T14:13:25.461Z,99630.69
2023-07-06T14:15:54.995Z,99638.69
2023-07-06T14:18:24.783Z,99638.06
2023-07-06T14:21:00.997Z,99635.13
2023-07-06T14:23:30.369Z,99640.63
2023-07-06T14:25:59.146Z,99653.19
2023-07-06T14:28:29.184Z,99635.38
2023-07-06T14:31:04.254Z,99640.19
2023-07-06T14:33:33.397Z,99641.22
2023-07-06T14:36:03.600Z,99640.63
2023-07-06T14:38:32.442Z,99632.44
2023-07-06T14:41:04.137Z,99642.72
2023-07-06T14:43:33.830Z,99637.47
2023-07-06T14:46:03.736Z,99633.59
2023-07-06T14:48:32.675Z,99639.75
2023-07-06T14:51:09.312Z,99631.38
2023-07-06T14:53:40.736Z,99626.25
2023-07-06T14:56:10.872Z,99628.44
2023-07-06T14:58:39.584Z,99633.88
2023-07-06T15:01:08.512Z,99622.59
2023-07-06T15:03:37.386Z,99619.84
2023-07-06T15:06:10.604Z,99627.19
2023-07-06T15:08:40.101Z,99622.38
2023-07-06T15:11:08.968Z,99618.28
2023-07-06T15:13:37.872Z,99621.63
2023-07-06T15:16:06.838Z,99618.06
2023-07-06T15:18:35.951Z,99616.31
2023-07-06T15:21:12.060Z,99618.28
2023-07-06T15:23:42.508Z,99613.78
2023-07-06T15:26:12.605Z,99619.75
2023-07-06T15:28:41.601Z,99609.50
2023-07-06T15:31:10.710Z,99608.75
2023-07-06T15:33:41.308Z,99614.00
2023-07-06T15:36:11.628Z,99605.69
2023-07-06T15:38:40.627Z,99601.81
2023-07-06T15:41:09.607Z,99602.78
2023-07-06T15:43:38.689Z,99590.19
2023-07-06T15:46:07.775Z,99604.94
2023-07-06T15:48:37.431Z,99598.44
2023-07-06T15:51:06.727Z,99598.44
2023-07-06T15:53:38.409Z,99606.19
2023-07-06T15:56:07.736Z,99604.72
2023-07-06T15:58:38.063Z,99597.59
2023-07-06T16:01:09.066Z,99593.53
2023-07-06T16:03:39.173Z,99598.66
2023-07-06T16:06:08.237Z,99589.94
2023-07-06T16:08:38.727Z,99586.47
2023-07-06T16:11:07.578Z,99591.09
2023-07-06T16:13:36.519Z,99597.03
2023-07-06T16:16:05.755Z,99586.03
2023-07-06T16:18:34.535Z,99588.22
2023-07-06T16:21:03.990Z,99584.53
2023-07-06T16:23:32.503Z,99589.78
2023-07-06T16:26:09.767Z,99580.81
2023-07-06T16:28:39.494Z,99577.63
2023-07-06T16:31:09.307Z,99577.63
2023-07-06T16:33:39.260Z,99577.81
2023-07-06T16:36:08.039Z,99580.53
2023-07-06T16:38:37.183Z,99585.13
2023-07-06T16:41:10.771Z,99589.91
2023-07-06T16:43:40.048Z,99588.16
2023-07-06T16:46:09.216Z,99596.81
2023-07-06T16:48:38.656Z,99593.47
2023-07-06T16:51:08.047Z,99596.19
2023-07-06T16:53:36.509Z,99601.41
2023-07-06T16:56:07.403Z,99606.00
2023-07-06T16:58:36.803Z,99604.72
2023-07-06T17:01:06.639Z,99599.78
2023-07-06T17:03:36.328Z,99602.59
2023-07-06T17:06:05.698Z,99600.56
2023-07-06T17:08:34.289Z,99601.72
2023-07-06T17:11:10.355Z,99605.06
2023-07-06T17:13:39.438Z,99608.59
2023-07-06T17:16:08.712Z,99607.88
2023-07-06T17:18:37.742Z,99609.72
2023-07-06T17:21:09.830Z,99614.22
2023-07-06T17:23:38.694Z,99606.56
2023-07-06T17:26:09.020Z,99611.81
2023-07-06T17:28:37.994Z,99614.59
2023-07-06T17:31:07.911Z,99608.75
2023-07-06T17:33:37.019Z,99613.28
2023-07-06T17:36:06.508Z,99618.72
2023-07-06T17:38:36.056Z,99616.00
2023-07-06T17:41:07.353Z,99623.72
2023-07-06T17:43:38.928Z,99622.25
2023-07-06T17:46:08.156Z,99635.50
2023-07-06T17:48:37.777Z,99643.34
2023-07-06T17:51:08.996Z,99634.94
2023-07-06T17:53:38.247Z,99636.81
2023-07-06T17:56:07.277Z,99641.41
2023-07-06T17:58:37.614Z,99633.94
2023-07-06T18:01:06.606Z,99631.72
2023-07-06T18:03:35.553Z,99636.25
2023-07-06T18:06:07.365Z,99645.22
2023-07-06T18:08:36.198Z,99640.19
2023-07-06T18:11:05.555Z,99635.25
2023-07-06T18:13:37.633Z,99646.88
2023-07-06T18:16:08.137Z,99649.88
2023-07-06T18:18:36.991Z,99655.38
2023-07-06T18:21:06.295Z,99652.28
2023-07-06T18:23:34.844Z,99657.72
2023-07-06T18:26:03.785Z,99660.81
2023-07-06T18:28:34.288Z,99674.03
2023-07-06T18:31:04.855Z,99673.56
2023-07-06T18:33:35.085Z,99662.03
2023-07-06T18:36:05.466Z,99667.03
2023-07-06T18:38:34.276Z,99672.78
2023-07-06T18:41:04.865Z,99681.13
2023-07-06T18:43:33.898Z,99683.38
2023-07-06T18:46:03.121Z,99689.94
2023-07-06T18:48:34.794Z,99684.13
2023-07-06T18:51:06.034Z,99694.81
2023-07-06T18:53:45.217Z,99697.69
2023-07-06T18:56:15.957Z,99710.28
2023-07-06T18:58:45.297Z,99709.53
2023-07-06T19:01:15.320Z,99712.78
2023-07-06T19:03:46.152Z,99719.25
2023-07-06T19:06:18.885Z,99722.19
2023-07-06T19:08:49.683Z,99723.19
2023-07-06T19:11:19.003Z,99727.84
2023-07-06T19:13:47.774Z,99725.78
2023-07-06T19:16:17.360Z,99736.47
2023-07-06T19:18:47.544Z,99739.53
2023-07-06T19:21:16.453Z,99743.19
2023-07-06T19:23:45.666Z,99744.28
2023-07-06T19:26:16.114Z,99749.88
2023-07-06T19:28:45.017Z,99750.34
2023-07-06T19:31:13.887Z,99749.09
2023-07-06T19:33:42.760Z,99749.47
2023-07-06T19:36:13.508Z,99750.69
2023-07-06T19:38:42.432Z,99751.25
2023-07-06T19:41:11.797Z,99755.91
2023-07-06T19:43:40.427Z,99765.63
2023-07-06T19:46:19.545Z,99777.94
2023-07-06T19:48:50.208Z,99769.63
2023-07-06T19:51:21.911Z,99780.41
2023-07-06T19:53:52.366Z,99775.50
2023-07-06T19:56:23.132Z,99771.41
2023-07-06T19:58:55.065Z,99775.94
2023-07-06T20:01:24.587Z,99784.84
2023-07-06T20:03:53.260Z,99779.13
2023-07-06T20:06:23.622Z,99775.22
2023-07-06T20:08:52.384Z,99782.06
2023-07-06T20:11:21.119Z,99785.84
2023-07-06T20:13:50.567Z,99791.03
2023-07-06T20:16:19.437Z,99794.59
2023-07-06T20:18:48.358Z,99786.25
2023-07-06T20:21:17.179Z,99789.78
2023-07-06T20:23:47.444Z,99795.88
2023-07-06T20:26:16.625Z,99800.63
2023-07-06T20:28:45.498Z,99805.47
2023-07-06T20:31:14.479Z,99815.25
2023-07-06T20:33:43.276Z,99813.13
2023-07-06T20:36:12.203Z,99817.72
2023-07-06T20:38:40.889Z,99816.81
2023-07-06T20:41:11.193Z,99819.41
2023-07-06T20:43:40.127Z,99823.75
2023-07-06T20:46:08.994Z,99826.53
2023-07-06T20:48:37.848Z,99828.34
2023-07-06T20:51:06.709Z,99823.16
2023-07-06T20:53:35.541Z,99821.72
2023-07-06T20:56:04.306Z,99823.66
2023-07-06T20:58:34.566Z,99822.84
2023-07-06T21:01:03.393Z,99823.84
2023-07-06T21:03:34.772Z,99816.22
2023-07-06T21:06:03.786Z,99822.59
2023-07-06T21:08:32.961Z,99819.31
2023-07-06T21:11:01.879Z,99822.22
2023-07-06T21:13:30.967Z,99821.38
2023-07-06T21:16:05.539Z,99828.25
2023-07-06T21:18:34.780Z,99839.19
2023-07-06T21:21:04.325Z,99832.75
2023-07-06T21:23:32.968Z,99836.13
2023-07-06T21:26:01.797Z,99837.00
2023-07-06T21:28:30.648Z,99839.19
2023-07-06T21:30:59.680Z,99830.16
2023-07-06T21:33:30.270Z,99836.47
2023-07-06T21:35:59.145Z,99844.06
2023-07-06T21:38:27.963Z,99849.66
2023-07-06T21:40:58.375Z,99848.97
2023-07-06T21:43:27.650Z,99845.84
2023-07-06T21:45:56.470Z,99844.47
2023-07-06T21:48:25.442Z,99849.03
2023-07-06T21:50:59.854Z,99847.25
2023-07-06T21:53:29.070Z,99850.72
2023-07-06T21:55:58.995Z,99846.03
2023-07-06T21:58:28.247Z,99848.94
2023-07-06T22:00:58.378Z,99847.44
2023-07-06T22:03:27.664Z,99845.16
2023-07-06T22:06:05.160Z,99841.66
2023-07-06T22:08:34.581Z,99837.94
2023-07-06T22:11:05.303Z,99844.72
2023-07-06T22:13:35.558Z,99844.16
2023-07-06T22:16:04.675Z,99843.38
2023-07-06T22:18:35.218Z,99850.31
2023-07-06T22:21:06.200Z,99837.63
2023-07-06T22:23:36.147Z,99843.28
2023-07-06T22:26:06.677Z,99840.78
2023-07-06T22:28:35.805Z,99831.03
2023-07-06T22:31:07.614Z,99837.41
2023-07-06T22:33:38.642Z,99832.47
2023-07-06T22:36:11.478Z,99842.66
2023-07-06T22:38:41.713Z,99833.63
2023-07-06T22:41:11.122Z,99835.88
2023-07-06T22:43:40.097Z,99830.38
2023-07-06T22:46:09.522Z,99825.97
2023-07-06T22:48:41.142Z,99827.66
2023-07-06T22:51:11.735Z,99822.56
2023-07-06T22:53:40.337Z,99826.53
2023-07-06T22:56:09.419Z,99826.88
2023-07-06T22:58:38.281Z,99823.19
2023-07-06T23:01:17.529Z,99826.06
2023-07-06T23:03:46.689Z,99829.06
2023-07-06T23:06:17.660Z,99830.97
2023-07-06T23:08:46.925Z,99835.25
2023-07-06T23:11:15.915Z,99844.72
2023-07-06T23:13:46.310Z,99846.00
2023-07-06T23:16:15.212Z,99853.16
2023-07-06T23:18:43.951Z,99849.75
2023-07-06T23:21:13.020Z,99851.53
2023-07-06T23:23:43.876Z,99853.56
2023-07-06T23:26:13.205Z,99846.63
2023-07-06T23:28:42.055Z,99852.47
2023-07-06T23:31:12.676Z,99845.84
2023-07-06T23:33:41.657Z,99857.16
2023-07-06T23:36:16.836Z,99848.88
2023-07-06T23:38:52.292Z,99849.63
2023-07-06T23:41:23.145Z,99852.00
2023-07-06T23:43:52.326Z,99852.84
2023-07-06T23:46:22.353Z,99843.84
2023-07-06T23:48:53.476Z,99852.44
2023-07-06T23:51:24.778Z,99858.69
2023-07-06T23:53:55.144Z,99852.78
2023-07-06T23:56:24.156Z,99861.38
2023-07-06T23:58:52.974Z,99861.38
